Terminal Aerodrome Forecast
Issued by NWS

Home | Current Version | Previous Version | Text Only | Print | Product List | Glossary On
Versions: 1 2 3 4 5 6 7 8 9 10 11 12 13 14 15 16 17 18 19
000
FTUS42 KMLB 190500
TAFISM
TAF
KISM 190540Z 1906/2006 16003KT P6SM VCSH SCT015 BKN035 OVC060
     FM190800 18005KT P6SM VCSH BKN003 OVC020
     FM191400 22008KT P6SM VCSH SCT008 OVC020
     FM191900 25010KT P6SM VCSH SCT025 BKN035
     FM200000 27010KT P6SM SCT012 BKN020
      AMD NOT SKED TIL 191100=

USA.gov is the U.S. government's official web portal to all federal, state and local government web resources and services.